createdAt,value
2019-03-09T00:00:49.189Z,10.73
2019-03-09T00:03:22.670Z,15.27
2019-03-09T00:05:54.729Z,12.10
2019-03-09T00:08:26.649Z,12.77
2019-03-09T00:10:58.577Z,11.33
2019-03-09T00:13:30.589Z,12.63
2019-03-09T00:16:02.858Z,13.10
2019-03-09T00:18:34.949Z,14.37
2019-03-09T00:21:07.453Z,12.77
2019-03-09T00:23:56.989Z,11.57
2019-03-09T00:26:53.791Z,17.63
2019-03-09T00:29:36.529Z,11.23
2019-03-09T00:32:11.499Z,12.33
2019-03-09T00:34:43.569Z,15.23
2019-03-09T00:37:15.709Z,12.90
2019-03-09T00:39:47.709Z,14.63
2019-03-09T00:42:19.798Z,14.43
2019-03-09T00:44:52.062Z,14.27
2019-03-09T00:47:24.059Z,12.93
2019-03-09T00:49:55.947Z,13.70
2019-03-09T00:52:28.029Z,14.27
2019-03-09T00:54:59.991Z,11.53
2019-03-09T00:57:31.887Z,13.50
2019-03-09T01:00:04.053Z,10.10
2019-03-09T01:02:36.389Z,15.33
2019-03-09T01:05:09.570Z,14.87
2019-03-09T01:07:41.549Z,18.13
2019-03-09T01:10:15.557Z,13.37
2019-03-09T01:12:47.368Z,15.80
2019-03-09T01:15:19.396Z,12.13
2019-03-09T01:17:51.509Z,10.90
2019-03-09T01:20:23.529Z,15.27
2019-03-09T01:22:55.311Z,13.07
2019-03-09T01:25:27.332Z,13.43
2019-03-09T01:27:59.370Z,11.53
2019-03-09T01:30:31.389Z,11.07
2019-03-09T01:33:03.264Z,17.70
2019-03-09T01:35:35.409Z,15.33
2019-03-09T01:38:07.238Z,13.03
2019-03-09T01:40:39.249Z,14.20
2019-03-09T01:43:11.190Z,14.57
2019-03-09T01:45:43.249Z,13.43
2019-03-09T01:48:15.178Z,13.87
2019-03-09T01:50:47.210Z,17.13
2019-03-09T01:53:19.149Z,14.03
2019-03-09T01:55:51.157Z,16.57
2019-03-09T01:58:23.105Z,12.90
2019-03-09T02:00:55.059Z,15.70
2019-03-09T02:03:27.149Z,19.23
2019-03-09T02:05:59.129Z,14.93
2019-03-09T02:08:30.997Z,15.33
2019-03-09T02:11:02.997Z,13.63
2019-03-09T02:13:34.940Z,15.37
2019-03-09T02:16:06.948Z,15.03
2019-03-09T02:18:38.897Z,15.57
2019-03-09T02:21:10.829Z,17.43
2019-03-09T02:23:42.810Z,18.47
2019-03-09T02:26:14.939Z,17.50
2019-03-09T02:28:46.809Z,15.10
2019-03-09T02:31:18.678Z,15.00
2019-03-09T02:33:50.650Z,16.43
2019-03-09T02:36:22.630Z,14.03
2019-03-09T02:39:19.296Z,15.43
2019-03-09T02:41:51.329Z,17.53
2019-03-09T02:44:23.132Z,18.33
2019-03-09T02:46:55.138Z,14.40
2019-03-09T02:49:27.028Z,15.00
2019-03-09T02:51:59.050Z,12.67
2019-03-09T02:54:31.049Z,11.97
2019-03-09T02:57:03.129Z,16.17
2019-03-09T02:59:35.062Z,13.53
2019-03-09T03:02:20.808Z,13.93
2019-03-09T03:04:52.793Z,12.63
2019-03-09T03:07:24.891Z,20.73
2019-03-09T03:09:57.994Z,12.93
2019-03-09T03:12:30.120Z,16.57
2019-03-09T03:15:03.065Z,17.07
2019-03-09T03:17:35.261Z,16.57
2019-03-09T03:20:07.470Z,12.17
2019-03-09T03:22:39.584Z,16.80
2019-03-09T03:25:11.551Z,13.97
2019-03-09T03:27:43.500Z,13.17
2019-03-09T03:30:15.410Z,13.40
2019-03-09T03:32:47.394Z,15.83
2019-03-09T03:35:19.329Z,12.60
2019-03-09T03:37:51.195Z,14.10
2019-03-09T03:40:22.992Z,12.23
2019-03-09T03:42:54.953Z,13.77
2019-03-09T03:45:26.832Z,13.37
2019-03-09T03:47:58.790Z,11.27
2019-03-09T03:50:30.529Z,11.90
2019-03-09T03:53:02.423Z,16.57
2019-03-09T03:55:34.511Z,12.90
2019-03-09T03:58:06.579Z,14.13
2019-03-09T04:00:38.642Z,23.30
2019-03-09T04:03:11.327Z,14.90
2019-03-09T04:05:43.373Z,12.73
2019-03-09T04:08:15.518Z,13.53
2019-03-09T04:10:47.534Z,11.87
2019-03-09T04:13:19.510Z,12.43
2019-03-09T04:15:51.391Z,16.13
2019-03-09T04:18:23.389Z,14.87
2019-03-09T04:20:55.416Z,14.47
2019-03-09T04:23:27.334Z,12.37
2019-03-09T04:25:59.260Z,12.50
2019-03-09T04:28:31.050Z,11.10
2019-03-09T04:31:02.957Z,15.53
2019-03-09T04:33:34.832Z,15.10
2019-03-09T04:36:06.959Z,11.20
2019-03-09T04:38:39.002Z,14.10
2019-03-09T04:41:11.053Z,12.50
2019-03-09T04:43:43.600Z,13.90
2019-03-09T04:46:15.780Z,15.73
2019-03-09T04:48:47.849Z,17.23
2019-03-09T04:51:19.789Z,14.80
2019-03-09T04:53:51.578Z,13.13
2019-03-09T04:56:23.599Z,13.53
2019-03-09T04:58:55.670Z,15.07
2019-03-09T05:01:27.667Z,17.97
2019-03-09T05:04:52.980Z,16.17
2019-03-09T05:07:48.334Z,16.27
2019-03-09T05:10:39.709Z,15.17
2019-03-09T05:13:14.849Z,11.37
2019-03-09T05:15:46.889Z,13.47
2019-03-09T05:18:18.989Z,12.90
2019-03-09T05:20:50.919Z,12.07
2019-03-09T05:23:23.077Z,18.00
2019-03-09T05:25:54.909Z,19.13
2019-03-09T05:28:26.879Z,14.87
2019-03-09T05:30:59.077Z,15.90
2019-03-09T05:33:30.891Z,13.20
2019-03-09T05:36:02.808Z,18.83
2019-03-09T05:38:34.848Z,17.40
2019-03-09T05:41:06.881Z,14.97
2019-03-09T05:43:38.940Z,16.00
2019-03-09T05:46:10.989Z,14.93
2019-03-09T05:48:42.839Z,16.10
2019-03-09T05:51:14.808Z,17.17
2019-03-09T05:53:46.729Z,16.80
2019-03-09T05:56:18.772Z,18.13
2019-03-09T05:58:50.769Z,13.97
2019-03-09T06:01:22.710Z,13.83
2019-03-09T06:03:54.629Z,14.13
2019-03-09T06:06:26.739Z,15.23
2019-03-09T06:08:58.640Z,13.10
2019-03-09T06:11:30.629Z,15.27
2019-03-09T06:14:02.460Z,15.47
2019-03-09T06:16:34.389Z,14.17
2019-03-09T06:19:06.249Z,20.87
2019-03-09T06:21:38.212Z,15.07
2019-03-09T06:24:10.168Z,22.07
2019-03-09T06:26:42.197Z,15.87
2019-03-09T06:29:14.109Z,16.43
2019-03-09T06:32:22.299Z,15.03
2019-03-09T06:34:54.329Z,15.87
2019-03-09T06:37:26.279Z,15.27
2019-03-09T06:39:58.719Z,17.13
2019-03-09T06:42:39.909Z,16.90
2019-03-09T06:45:14.779Z,15.17
2019-03-09T06:47:46.829Z,16.67
2019-03-09T06:50:22.309Z,15.87
2019-03-09T06:52:55.489Z,17.40
2019-03-09T06:55:29.546Z,17.70
2019-03-09T06:58:01.310Z,15.33
2019-03-09T07:00:41.529Z,17.40
2019-03-09T07:03:17.168Z,17.27
2019-03-09T07:05:49.238Z,15.03
2019-03-09T07:08:21.309Z,14.60
2019-03-09T07:10:53.369Z,14.77
2019-03-09T07:13:25.529Z,16.17
2019-03-09T07:15:57.529Z,13.37
2019-03-09T07:18:33.671Z,17.33
2019-03-09T07:21:05.596Z,14.43
2019-03-09T07:23:37.885Z,15.70
2019-03-09T07:26:09.878Z,15.53
2019-03-09T07:28:41.800Z,16.27
2019-03-09T07:31:13.722Z,14.20
2019-03-09T07:33:45.710Z,13.63
2019-03-09T07:36:17.798Z,13.50
2019-03-09T07:38:51.095Z,16.50
2019-03-09T07:41:23.236Z,13.10
2019-03-09T07:43:55.502Z,15.67
2019-03-09T07:46:27.454Z,14.03
2019-03-09T07:48:59.324Z,16.30
2019-03-09T07:51:31.495Z,23.53
2019-03-09T07:54:03.342Z,13.40
2019-03-09T07:56:35.307Z,14.03
2019-03-09T07:59:07.205Z,17.43
2019-03-09T08:01:39.362Z,17.00
2019-03-09T08:04:11.465Z,13.30
2019-03-09T08:06:43.683Z,16.10
2019-03-09T08:09:15.593Z,14.00
2019-03-09T08:11:48.055Z,14.93
2019-03-09T08:14:20.163Z,15.73
2019-03-09T08:16:53.345Z,16.23
2019-03-09T08:19:25.746Z,16.07
2019-03-09T08:21:58.145Z,17.47
2019-03-09T08:24:30.095Z,12.73
2019-03-09T08:27:03.054Z,18.20
2019-03-09T08:29:35.029Z,14.97
2019-03-09T08:32:06.829Z,12.50
2019-03-09T08:34:38.563Z,13.17
2019-03-09T08:37:10.476Z,10.90
2019-03-09T08:39:42.381Z,11.37
2019-03-09T08:42:15.736Z,13.53
2019-03-09T08:44:47.625Z,13.63
2019-03-09T08:47:19.525Z,17.73
2019-03-09T08:49:51.674Z,13.20
2019-03-09T08:52:23.641Z,11.37
2019-03-09T08:54:55.454Z,10.83
2019-03-09T08:57:27.453Z,9.93
2019-03-09T08:59:59.486Z,10.37
2019-03-09T09:02:31.628Z,11.73
2019-03-09T09:05:03.487Z,11.63
2019-03-09T09:07:35.446Z,10.83
2019-03-09T09:10:07.775Z,10.00
2019-03-09T09:12:39.766Z,10.23
2019-03-09T09:15:14.734Z,10.27
2019-03-09T09:17:46.366Z,10.77
2019-03-09T09:20:19.544Z,10.30
2019-03-09T09:22:51.535Z,11.90
2019-03-09T09:25:23.466Z,10.83
2019-03-09T09:27:55.506Z,11.03
2019-03-09T09:30:28.224Z,10.90
2019-03-09T09:33:00.315Z,10.63
2019-03-09T09:35:33.146Z,10.43
2019-03-09T09:38:05.028Z,10.60
2019-03-09T09:40:37.115Z,11.87
2019-03-09T09:43:09.136Z,11.40
2019-03-09T09:45:41.167Z,11.07
2019-03-09T09:48:13.334Z,10.60
2019-03-09T09:50:45.354Z,10.17
2019-03-09T09:53:17.604Z,8.50
2019-03-09T09:55:49.436Z,9.77
2019-03-09T09:58:21.356Z,9.40
2019-03-09T10:00:53.306Z,8.37
2019-03-09T10:03:25.338Z,9.30
2019-03-09T10:05:57.466Z,9.17
2019-03-09T10:08:30.796Z,9.20
2019-03-09T10:11:03.036Z,10.10
2019-03-09T10:13:35.146Z,9.33
2019-03-09T10:16:08.395Z,9.73
2019-03-09T10:18:40.306Z,12.90
2019-03-09T10:21:12.147Z,11.97
2019-03-09T10:23:43.925Z,13.13
2019-03-09T10:26:15.855Z,9.20
2019-03-09T10:28:47.862Z,9.23
2019-03-09T10:31:19.780Z,8.07
2019-03-09T10:33:51.684Z,8.60
2019-03-09T10:36:23.460Z,10.00
2019-03-09T10:38:55.703Z,10.43
2019-03-09T10:41:27.694Z,8.70
2019-03-09T10:43:59.545Z,10.17
2019-03-09T10:46:31.315Z,8.53
2019-03-09T10:49:03.164Z,9.43
2019-03-09T10:51:34.865Z,6.80
2019-03-09T10:54:06.814Z,7.97
2019-03-09T10:56:38.585Z,7.83
2019-03-09T10:59:11.605Z,8.33
2019-03-09T11:01:43.545Z,6.73
2019-03-09T11:04:15.635Z,6.30
2019-03-09T11:06:48.739Z,8.43
2019-03-09T11:09:20.655Z,7.83
2019-03-09T11:11:52.432Z,7.57
2019-03-09T11:14:24.554Z,8.20
2019-03-09T11:16:56.661Z,6.80
2019-03-09T11:19:29.172Z,5.87
2019-03-09T11:22:01.074Z,5.63
2019-03-09T11:24:33.098Z,6.90
2019-03-09T11:27:05.106Z,10.37
2019-03-09T11:29:37.084Z,6.20
2019-03-09T11:32:09.045Z,6.40
2019-03-09T11:34:40.947Z,8.47
2019-03-09T11:37:12.737Z,8.03
2019-03-09T11:39:45.028Z,8.47
2019-03-09T11:42:17.264Z,8.07
2019-03-09T11:44:50.466Z,6.97
2019-03-09T11:47:22.336Z,8.97
2019-03-09T11:49:54.331Z,6.17
2019-03-09T11:52:26.412Z,5.73
2019-03-09T11:54:58.882Z,6.50
2019-03-09T11:57:31.932Z,7.23
2019-03-09T12:00:05.347Z,7.50
2019-03-09T12:02:39.139Z,7.30
2019-03-09T12:05:11.267Z,8.13
2019-03-09T12:07:43.163Z,8.67
2019-03-09T12:10:16.265Z,9.70
2019-03-09T12:12:48.245Z,9.07
2019-03-09T12:15:20.220Z,6.90
2019-03-09T12:17:52.206Z,7.17
2019-03-09T12:20:28.020Z,9.73
2019-03-09T12:23:15.241Z,8.10
2019-03-09T12:25:47.380Z,7.57
2019-03-09T12:28:19.317Z,8.07
2019-03-09T12:30:51.342Z,6.87
2019-03-09T12:33:23.168Z,5.53
2019-03-09T12:35:54.994Z,6.73
2019-03-09T12:38:27.105Z,6.90
2019-03-09T12:40:58.926Z,6.33
2019-03-09T12:43:30.994Z,4.97
2019-03-09T12:46:02.839Z,3.90
2019-03-09T12:48:34.894Z,4.30
2019-03-09T12:51:06.819Z,6.43
2019-03-09T12:53:38.726Z,8.37
2019-03-09T12:56:10.772Z,7.03
2019-03-09T12:58:42.530Z,7.73
2019-03-09T13:01:14.379Z,6.23
2019-03-09T13:03:46.411Z,7.57
2019-03-09T13:06:18.243Z,4.93
2019-03-09T13:08:50.496Z,7.53
2019-03-09T13:11:23.527Z,5.60
2019-03-09T13:13:55.726Z,6.07
2019-03-09T13:16:27.524Z,6.83
2019-03-09T13:18:59.401Z,5.37
2019-03-09T13:21:31.202Z,9.07
2019-03-09T13:24:03.398Z,6.87
2019-03-09T13:26:35.343Z,8.07
2019-03-09T13:29:07.341Z,6.43
2019-03-09T13:31:39.143Z,4.37
2019-03-09T13:34:11.277Z,5.20
2019-03-09T13:36:42.958Z,4.73
2019-03-09T13:39:15.306Z,4.10
2019-03-09T13:41:47.054Z,3.17
2019-03-09T13:44:18.947Z,3.63
2019-03-09T13:46:50.796Z,3.47
2019-03-09T13:49:22.893Z,4.87
2019-03-09T13:51:54.791Z,3.73
2019-03-09T13:54:26.727Z,3.60
2019-03-09T13:56:58.587Z,4.20
2019-03-09T13:59:30.446Z,5.47
2019-03-09T14:02:02.329Z,5.67
2019-03-09T14:04:34.461Z,4.00
2019-03-09T14:07:06.472Z,4.53
2019-03-09T14:09:38.500Z,5.00
2019-03-09T14:12:10.400Z,4.90
2019-03-09T14:14:42.196Z,5.37
2019-03-09T14:17:14.169Z,4.83
2019-03-09T14:19:46.224Z,5.30
2019-03-09T14:22:18.265Z,6.43
2019-03-09T14:24:50.180Z,6.43
2019-03-09T14:27:22.092Z,6.47
2019-03-09T14:29:53.862Z,6.03
2019-03-09T14:32:25.570Z,6.13
2019-03-09T14:34:57.410Z,6.90
2019-03-09T14:37:29.219Z,8.27
2019-03-09T14:40:01.179Z,7.77
2019-03-09T14:42:33.132Z,5.10
2019-03-09T14:45:05.431Z,6.47
2019-03-09T14:47:37.031Z,2.77
2019-03-09T14:50:09.170Z,4.50
2019-03-09T14:52:41.277Z,2.30
2019-03-09T14:55:13.530Z,2.20
2019-03-09T14:57:45.492Z,1.90
2019-03-09T15:00:19.261Z,2.23
2019-03-09T15:02:51.351Z,3.20
2019-03-09T15:05:23.390Z,2.47
2019-03-09T15:07:55.349Z,3.60
2019-03-09T15:10:27.393Z,3.97
2019-03-09T15:12:59.514Z,3.37
2019-03-09T15:15:32.418Z,4.20
2019-03-09T15:18:04.461Z,3.53
2019-03-09T15:20:36.370Z,2.73
2019-03-09T15:23:08.480Z,3.37
2019-03-09T15:25:40.350Z,3.57
2019-03-09T15:28:12.521Z,3.80
2019-03-09T15:30:44.414Z,4.70
2019-03-09T15:33:16.341Z,4.30
2019-03-09T15:35:48.471Z,4.07
2019-03-09T15:38:20.400Z,7.10
2019-03-09T15:40:52.910Z,3.23
2019-03-09T15:43:24.811Z,4.03
2019-03-09T15:45:56.790Z,6.07
2019-03-09T15:48:30.060Z,3.80
2019-03-09T15:51:01.949Z,4.13
2019-03-09T15:53:34.152Z,4.10
2019-03-09T15:56:06.227Z,5.10
2019-03-09T15:58:38.191Z,4.43
2019-03-09T16:01:10.142Z,3.80
2019-03-09T16:03:42.111Z,3.90
2019-03-09T16:06:14.008Z,4.30
2019-03-09T16:08:45.846Z,2.67
2019-03-09T16:11:17.788Z,3.73
2019-03-09T16:13:49.851Z,4.50
2019-03-09T16:16:21.749Z,4.43
2019-03-09T16:18:53.780Z,4.77
2019-03-09T16:21:26.051Z,2.37
2019-03-09T16:23:57.939Z,2.80
2019-03-09T16:26:29.890Z,2.70
2019-03-09T16:29:03.701Z,4.00
2019-03-09T16:31:36.101Z,4.63
2019-03-09T16:34:08.162Z,3.17
2019-03-09T16:36:39.950Z,2.30
2019-03-09T16:39:13.443Z,2.87
2019-03-09T16:41:45.571Z,3.50
2019-03-09T16:44:17.469Z,3.10
2019-03-09T16:46:49.331Z,4.43
2019-03-09T16:49:21.261Z,3.17
2019-03-09T16:51:53.209Z,4.03
2019-03-09T16:54:25.169Z,4.33
2019-03-09T16:56:57.050Z,4.70
2019-03-09T16:59:28.981Z,4.17
2019-03-09T17:02:00.739Z,3.87
2019-03-09T17:04:32.709Z,20.73
2019-03-09T17:07:04.719Z,9.57
2019-03-09T17:09:36.630Z,7.13
2019-03-09T17:12:08.461Z,7.83
2019-03-09T17:14:40.459Z,6.90
2019-03-09T17:17:12.352Z,9.00
2019-03-09T17:19:44.190Z,9.63
2019-03-09T17:22:16.193Z,7.10
2019-03-09T17:24:47.932Z,8.07
2019-03-09T17:27:19.674Z,7.87
2019-03-09T17:29:51.562Z,10.00
2019-03-09T17:32:26.014Z,7.73
2019-03-09T17:34:56.909Z,8.83
2019-03-09T17:37:28.836Z,7.20
2019-03-09T17:40:00.803Z,7.93
2019-03-09T17:42:32.912Z,6.70
2019-03-09T17:45:04.897Z,8.57
2019-03-09T17:47:36.743Z,6.93
2019-03-09T17:50:09.918Z,6.93
2019-03-09T17:52:41.646Z,8.20
2019-03-09T17:55:13.724Z,9.23
2019-03-09T17:57:45.554Z,7.27
2019-03-09T18:00:20.081Z,8.30
2019-03-09T18:02:51.982Z,8.47
2019-03-09T18:05:23.743Z,8.70
2019-03-09T18:07:55.646Z,6.77
2019-03-09T18:10:42.632Z,7.47
2019-03-09T18:13:14.442Z,10.77
2019-03-09T18:15:46.182Z,7.00
2019-03-09T18:18:18.212Z,9.33
2019-03-09T18:20:50.131Z,9.17
2019-03-09T18:23:21.962Z,9.70
2019-03-09T18:25:53.866Z,9.00
2019-03-09T18:28:25.732Z,8.67
2019-03-09T18:30:57.610Z,9.33
2019-03-09T18:33:29.662Z,10.57
2019-03-09T18:36:01.512Z,12.53
2019-03-09T18:38:33.351Z,9.67
2019-03-09T18:41:05.203Z,11.73
2019-03-09T18:43:36.852Z,12.87
2019-03-09T18:46:08.523Z,14.03
2019-03-09T18:48:41.192Z,9.93
2019-03-09T18:51:13.024Z,12.33
2019-03-09T18:53:44.722Z,12.60
2019-03-09T18:56:16.658Z,9.80
2019-03-09T18:58:48.531Z,12.03
2019-03-09T19:01:20.476Z,12.00
2019-03-09T19:03:52.191Z,11.40
2019-03-09T19:06:24.782Z,11.90
2019-03-09T19:08:56.662Z,15.50
2019-03-09T19:11:28.541Z,14.13
2019-03-09T19:14:00.371Z,12.47
2019-03-09T19:16:32.344Z,13.17
2019-03-09T19:19:04.182Z,11.57
2019-03-09T19:21:37.342Z,13.70
2019-03-09T19:24:09.363Z,13.63
2019-03-09T19:26:41.451Z,13.80
2019-03-09T19:29:13.362Z,12.50
2019-03-09T19:31:45.202Z,12.33
2019-03-09T19:34:17.141Z,12.83
2019-03-09T19:36:49.122Z,12.43
2019-03-09T19:39:21.082Z,13.77
2019-03-09T19:41:52.991Z,15.73
2019-03-09T19:44:25.965Z,14.13
2019-03-09T19:46:57.812Z,14.83
2019-03-09T19:49:29.852Z,17.70
2019-03-09T19:52:01.842Z,13.37
2019-03-09T19:54:33.863Z,14.40
2019-03-09T19:57:05.822Z,14.97
2019-03-09T19:59:37.722Z,23.90
2019-03-09T20:02:09.763Z,14.23
2019-03-09T20:04:41.862Z,41.77
2019-03-09T20:07:14.063Z,110.10
2019-03-09T20:09:46.222Z,17.07
2019-03-09T20:12:18.144Z,16.33
2019-03-09T20:14:49.946Z,16.20
2019-03-09T20:17:21.727Z,15.17
2019-03-09T20:19:53.642Z,14.50
2019-03-09T20:22:25.570Z,14.33
2019-03-09T20:24:57.441Z,15.00
2019-03-09T20:27:29.333Z,14.37
2019-03-09T20:30:01.169Z,14.40
2019-03-09T20:32:34.521Z,15.77
2019-03-09T20:35:07.363Z,15.65
2019-03-09T20:37:39.284Z,15.07
2019-03-09T20:40:11.668Z,16.70
2019-03-09T20:42:43.882Z,16.13
2019-03-09T20:45:16.231Z,16.20
2019-03-09T20:47:48.144Z,19.17
2019-03-09T20:50:20.522Z,16.97
2019-03-09T20:52:52.371Z,16.13
2019-03-09T20:55:24.892Z,16.57
2019-03-09T20:57:58.132Z,17.00
2019-03-09T21:00:30.504Z,16.83
2019-03-09T21:03:03.293Z,15.97
2019-03-09T21:05:36.765Z,16.03
2019-03-09T21:08:09.112Z,16.10
2019-03-09T21:10:41.192Z,13.73
2019-03-09T21:13:13.202Z,13.90
2019-03-09T21:15:45.372Z,12.27
2019-03-09T21:18:17.622Z,13.17
2019-03-09T21:20:49.866Z,10.03
2019-03-09T21:23:22.191Z,9.60
2019-03-09T21:25:55.860Z,9.53
2019-03-09T21:28:30.630Z,11.57
2019-03-09T21:31:04.982Z,9.90
2019-03-09T21:33:37.070Z,9.17
2019-03-09T21:36:09.142Z,9.10
2019-03-09T21:38:42.182Z,10.27
2019-03-09T21:41:14.332Z,7.30
2019-03-09T21:43:46.093Z,7.73
2019-03-09T21:46:18.451Z,9.37
2019-03-09T21:48:50.718Z,8.17
2019-03-09T21:51:22.742Z,8.87
2019-03-09T21:53:56.314Z,7.70
2019-03-09T21:56:28.002Z,8.23
2019-03-09T21:59:01.152Z,6.83
2019-03-09T22:01:33.162Z,7.13
2019-03-09T22:04:05.172Z,7.73
2019-03-09T22:06:37.147Z,6.50
2019-03-09T22:09:09.245Z,6.50
2019-03-09T22:11:41.103Z,7.33
2019-03-09T22:14:12.982Z,6.30
2019-03-09T22:16:44.782Z,7.17
2019-03-09T22:19:16.762Z,6.73
2019-03-09T22:21:48.722Z,7.03
2019-03-09T22:24:20.722Z,6.17
2019-03-09T22:26:52.662Z,5.70
2019-03-09T22:29:24.422Z,5.20
2019-03-09T22:31:56.245Z,6.17
2019-03-09T22:34:27.882Z,7.50
2019-03-09T22:36:59.646Z,6.03
2019-03-09T22:39:31.482Z,5.60
2019-03-09T22:42:03.552Z,6.80
2019-03-09T22:44:35.485Z,6.27
2019-03-09T22:47:11.592Z,5.37
2019-03-09T22:49:40.954Z,6.43
2019-03-09T22:52:12.942Z,7.17
2019-03-09T22:54:44.882Z,6.27
2019-03-09T22:57:16.677Z,7.50
2019-03-09T22:59:48.742Z,9.07
2019-03-09T23:02:20.702Z,7.10
2019-03-09T23:04:52.762Z,8.53
2019-03-09T23:07:25.711Z,7.70
2019-03-09T23:09:57.490Z,8.63
2019-03-09T23:12:29.342Z,8.70
2019-03-09T23:15:01.162Z,7.50
2019-03-09T23:17:34.462Z,9.07
2019-03-09T23:20:06.862Z,8.53
2019-03-09T23:22:38.802Z,8.00
2019-03-09T23:25:11.022Z,7.97
2019-03-09T23:27:43.002Z,8.87
2019-03-09T23:30:18.652Z,7.93
2019-03-09T23:32:50.601Z,8.40
2019-03-09T23:35:23.002Z,8.57
2019-03-09T23:37:55.014Z,8.23
2019-03-09T23:40:27.073Z,8.67
2019-03-09T23:42:59.156Z,8.40
2019-03-09T23:45:31.063Z,9.27
2019-03-09T23:48:04.135Z,10.47
2019-03-09T23:50:35.972Z,9.90
2019-03-09T23:53:09.211Z,8.77
2019-03-09T23:55:41.265Z,6.97
2019-03-09T23:58:13.533Z,8.93
